createdAt,value
2018-09-05T00:02:11.609Z,96457.86
2018-09-05T00:04:40.655Z,96464.22
2018-09-05T00:07:09.047Z,96466.07
2018-09-05T00:09:37.373Z,96460.44
2018-09-05T00:12:06.209Z,96459.59
2018-09-05T00:14:34.524Z,96459.20
2018-09-05T00:17:03.283Z,96457.25
2018-09-05T00:19:31.856Z,96461.44
2018-09-05T00:22:00.180Z,96452.59
2018-09-05T00:24:28.533Z,96455.16
2018-09-05T00:26:57.183Z,96450.02
2018-09-05T00:29:25.745Z,96445.09
2018-09-05T00:31:54.164Z,96444.25
2018-09-05T00:34:22.590Z,96446.91
2018-09-05T00:36:50.915Z,96445.53
2018-09-05T00:39:19.293Z,96455.06
2018-09-05T00:41:47.863Z,96448.39
2018-09-05T00:44:16.521Z,96448.29
2018-09-05T00:46:44.939Z,96444.38
2018-09-05T00:49:13.347Z,96447.84
2018-09-05T00:51:41.685Z,96452.62
2018-09-05T00:54:10.002Z,96444.48
2018-09-05T00:56:38.560Z,96445.60
2018-09-05T00:59:06.879Z,96446.70
2018-09-05T01:01:35.219Z,96448.41
2018-09-05T01:04:03.655Z,96451.58
2018-09-05T01:06:32.071Z,96447.33
2018-09-05T01:09:00.395Z,96443.03
2018-09-05T01:11:29.023Z,96443.52
2018-09-05T01:13:57.343Z,96440.23
2018-09-05T01:16:25.691Z,96440.99
2018-09-05T01:18:54.119Z,96440.77
2018-09-05T01:21:22.556Z,96440.77
2018-09-05T01:23:50.924Z,96436.77
2018-09-05T01:26:19.374Z,96444.86
2018-09-05T01:28:47.723Z,96438.79
2018-09-05T01:31:16.059Z,96444.20
2018-09-05T01:33:50.810Z,96434.87
2018-09-05T01:36:19.547Z,96433.55
2018-09-05T01:38:47.941Z,96433.11
2018-09-05T01:41:16.690Z,96439.14
2018-09-05T01:43:45.133Z,96438.62
2018-09-05T01:46:13.651Z,96443.77
2018-09-05T01:48:41.996Z,96436.59
2018-09-05T01:51:11.238Z,96440.06
2018-09-05T01:53:39.695Z,96433.73
2018-09-05T01:56:08.070Z,96430.36
2018-09-05T01:58:37.044Z,96430.80
2018-09-05T02:01:05.440Z,96428.94
2018-09-05T02:03:33.844Z,96427.88
2018-09-05T02:06:02.355Z,96430.33
2018-09-05T02:08:31.332Z,96429.76
2018-09-05T02:10:59.790Z,96431.69
2018-09-05T02:13:28.155Z,96429.54
2018-09-05T02:15:56.610Z,96431.17
2018-09-05T02:18:25.050Z,96441.20
2018-09-05T02:20:53.460Z,96433.61
2018-09-05T02:23:21.839Z,96433.17
2018-09-05T02:25:50.195Z,96434.52
2018-09-05T02:28:18.527Z,96427.03
2018-09-05T02:30:46.859Z,96420.23
2018-09-05T02:33:15.218Z,96425.56
2018-09-05T02:35:43.551Z,96424.93
2018-09-05T02:38:11.883Z,96414.80
2018-09-05T02:40:40.258Z,96412.13
2018-09-05T02:43:08.616Z,96410.28
2018-09-05T02:45:36.984Z,96407.94
2018-09-05T02:48:06.144Z,96403.53
2018-09-05T02:50:34.463Z,96405.39
2018-09-05T02:53:02.889Z,96399.54
2018-09-05T02:55:36.471Z,96397.06
2018-09-05T02:58:05.178Z,96400.66
2018-09-05T03:00:33.655Z,96397.74
2018-09-05T03:03:02.079Z,96391.97
2018-09-05T03:05:30.438Z,96399.67
2018-09-05T03:07:58.811Z,96401.05
2018-09-05T03:10:27.183Z,96402.45
2018-09-05T03:12:55.523Z,96408.48
2018-09-05T03:15:23.966Z,96411.34
2018-09-05T03:17:52.319Z,96412.45
2018-09-05T03:20:20.711Z,96415.62
2018-09-05T03:22:49.055Z,96406.09
2018-09-05T03:25:17.403Z,96400.91
2018-09-05T03:27:45.991Z,96401.64
2018-09-05T03:30:14.315Z,96402.08
2018-09-05T03:32:42.835Z,96404.86
2018-09-05T03:35:11.108Z,96405.48
2018-09-05T03:37:39.556Z,96407.95
2018-09-05T03:40:07.935Z,96407.14
2018-09-05T03:42:36.467Z,96411.25
2018-09-05T03:45:05.131Z,96409.73
2018-09-05T03:47:33.492Z,96404.78
2018-09-05T03:50:01.844Z,96407.70
2018-09-05T03:52:30.225Z,96404.93
2018-09-05T03:54:58.767Z,96403.79
2018-09-05T03:57:27.268Z,96405.13
2018-09-05T03:59:55.751Z,96407.92
2018-09-05T04:02:24.259Z,96407.41
2018-09-05T04:04:52.583Z,96399.53
2018-09-05T04:07:21.004Z,96400.67
2018-09-05T04:09:49.386Z,96400.16
2018-09-05T04:12:17.889Z,96402.19
2018-09-05T04:14:46.140Z,96407.33
2018-09-05T04:17:14.613Z,96403.52
2018-09-05T04:19:42.958Z,96393.58
2018-09-05T04:22:11.370Z,96389.66
2018-09-05T04:24:39.673Z,96393.65
2018-09-05T04:27:08.064Z,96391.17
2018-09-05T04:29:36.555Z,96395.87
2018-09-05T04:32:05.085Z,96394.73
2018-09-05T04:34:33.484Z,96395.87
2018-09-05T04:37:01.807Z,96403.49
2018-09-05T04:39:33.279Z,96402.89
2018-09-05T04:42:08.156Z,96405.38
2018-09-05T04:44:36.522Z,96403.04
2018-09-05T04:47:05.123Z,96402.71
2018-09-05T04:49:33.708Z,96397.20
2018-09-05T04:52:02.080Z,96404.55
2018-09-05T04:54:30.533Z,96403.08
2018-09-05T04:56:58.915Z,96403.41
2018-09-05T04:59:27.336Z,96401.45
2018-09-05T05:01:55.651Z,96408.48
2018-09-05T05:04:23.971Z,96409.00
2018-09-05T05:06:52.371Z,96408.05
2018-09-05T05:09:20.719Z,96406.09
2018-09-05T05:11:49.117Z,96405.45
2018-09-05T05:14:17.608Z,96411.63
2018-09-05T05:16:45.969Z,96410.30
2018-09-05T05:19:15.450Z,96413.97
2018-09-05T05:21:43.836Z,96413.45
2018-09-05T05:24:12.292Z,96417.77
2018-09-05T05:26:40.699Z,96415.41
2018-09-05T05:29:09.891Z,96420.55
2018-09-05T05:31:39.060Z,96421.17
2018-09-05T05:34:07.416Z,96423.47
2018-09-05T05:36:35.940Z,96415.77
2018-09-05T05:39:06.814Z,96424.20
2018-09-05T05:41:41.566Z,96420.54
2018-09-05T05:44:09.911Z,96426.61
2018-09-05T05:46:38.353Z,96424.38
2018-09-05T05:49:06.676Z,96434.78
2018-09-05T05:51:35.026Z,96429.38
2018-09-05T05:54:03.404Z,96430.81
2018-09-05T05:56:31.776Z,96426.11
2018-09-05T05:59:00.150Z,96422.95
2018-09-05T06:01:28.700Z,96429.92
2018-09-05T06:03:57.210Z,96430.03
2018-09-05T06:06:25.619Z,96430.03
2018-09-05T06:08:53.924Z,96431.17
2018-09-05T06:11:23.260Z,96432.83
2018-09-05T06:13:51.772Z,96439.41
2018-09-05T06:16:20.244Z,96438.00
2018-09-05T06:18:48.673Z,96436.06
2018-09-05T06:21:17.150Z,96440.02
2018-09-05T06:23:45.574Z,96450.08
2018-09-05T06:26:14.039Z,96449.70
2018-09-05T06:28:42.467Z,96453.39
2018-09-05T06:31:10.920Z,96445.12
2018-09-05T06:33:39.516Z,96445.03
2018-09-05T06:36:07.856Z,96442.50
2018-09-05T06:38:36.196Z,96448.76
2018-09-05T06:41:04.684Z,96439.75
2018-09-05T06:43:33.108Z,96441.52
2018-09-05T06:46:01.504Z,96437.95
2018-09-05T06:48:30.172Z,96447.41
2018-09-05T06:51:04.077Z,96444.14
2018-09-05T06:53:32.512Z,96441.28
2018-09-05T06:56:00.964Z,96441.52
2018-09-05T06:58:29.372Z,96450.25
2018-09-05T07:00:57.983Z,96450.16
2018-09-05T07:03:26.485Z,96452.54
2018-09-05T07:05:54.836Z,96451.53
2018-09-05T07:08:23.349Z,96449.10
2018-09-05T07:10:51.800Z,96454.15
2018-09-05T07:13:20.539Z,96449.86
2018-09-05T07:15:49.259Z,96449.23
2018-09-05T07:18:17.673Z,96449.14
2018-09-05T07:20:46.075Z,96445.66
2018-09-05T07:23:14.447Z,96452.13
2018-09-05T07:25:42.877Z,96446.91
2018-09-05T07:28:11.310Z,96449.91
2018-09-05T07:30:39.794Z,96449.70
2018-09-05T07:33:08.167Z,96452.31
2018-09-05T07:35:36.591Z,96450.27
2018-09-05T07:38:05.007Z,96452.31
2018-09-05T07:40:33.435Z,96454.77
2018-09-05T07:43:01.785Z,96456.41
2018-09-05T07:45:30.273Z,96458.38
2018-09-05T07:47:58.734Z,96457.22
2018-09-05T07:50:27.075Z,96455.56
2018-09-05T07:52:55.635Z,96450.83
2018-09-05T07:55:23.984Z,96440.92
2018-09-05T07:57:52.355Z,96450.36
2018-09-05T08:00:20.721Z,96450.86
2018-09-05T08:02:49.113Z,96452.80
2018-09-05T08:05:17.399Z,96447.41
2018-09-05T08:07:46.672Z,96454.50
2018-09-05T08:10:15.330Z,96454.13
2018-09-05T08:12:43.752Z,96459.77
2018-09-05T08:15:12.185Z,96456.44
2018-09-05T08:17:40.551Z,96448.07
2018-09-05T08:20:09.023Z,96454.43
2018-09-05T08:22:37.387Z,96451.42
2018-09-05T08:25:06.265Z,96447.80
2018-09-05T08:27:34.584Z,96447.23
2018-09-05T08:30:03.080Z,96444.81
2018-09-05T08:32:31.423Z,96450.04
2018-09-05T08:34:59.875Z,96448.36
2018-09-05T08:37:28.658Z,96448.83
2018-09-05T08:39:56.697Z,96449.89
2018-09-05T08:42:25.206Z,96446.47
2018-09-05T08:44:53.964Z,96445.52
2018-09-05T08:47:22.157Z,96441.89
2018-09-05T08:49:50.575Z,96443.70
2018-09-05T08:52:19.015Z,96433.77
2018-09-05T08:54:47.713Z,96433.42
2018-09-05T08:57:16.063Z,96429.96
2018-09-05T08:59:44.583Z,96434.61
2018-09-05T09:02:12.912Z,96430.84
2018-09-05T09:04:41.404Z,96433.45
2018-09-05T09:07:09.835Z,96433.85
2018-09-05T09:09:38.392Z,96435.11
2018-09-05T09:12:06.744Z,96432.39
2018-09-05T09:14:35.106Z,96427.47
2018-09-05T09:17:03.450Z,96429.63
2018-09-05T09:19:31.804Z,96426.36
2018-09-05T09:22:00.394Z,96421.72
2018-09-05T09:24:28.780Z,96423.41
2018-09-05T09:26:57.212Z,96421.22
2018-09-05T09:29:25.580Z,96418.31
2018-09-05T09:31:53.998Z,96417.09
2018-09-05T09:34:22.377Z,96419.39
2018-09-05T09:36:50.857Z,96418.79
2018-09-05T09:39:19.195Z,96415.88
2018-09-05T09:41:47.568Z,96411.47
2018-09-05T09:44:16.075Z,96408.45
2018-09-05T09:46:44.514Z,96404.84
2018-09-05T09:49:12.888Z,96400.26
2018-09-05T09:51:41.555Z,96399.25
2018-09-05T09:54:10.054Z,96394.95
2018-09-05T09:56:38.451Z,96400.83
2018-09-05T09:59:06.884Z,96397.79
2018-09-05T10:01:40.480Z,96396.63
2018-09-05T10:04:14.216Z,96394.88
2018-09-05T10:06:46.763Z,96383.94
2018-09-05T10:09:20.360Z,96386.76
2018-09-05T10:11:54.061Z,96383.48
2018-09-05T10:14:27.872Z,96376.20
2018-09-05T10:17:01.682Z,96385.79
2018-09-05T10:19:30.234Z,96382.57
2018-09-05T10:21:58.653Z,96379.80
2018-09-05T10:24:27.041Z,96384.00
2018-09-05T10:27:01.948Z,96374.46
2018-09-05T10:29:30.330Z,96375.80
2018-09-05T10:31:58.705Z,96359.83
2018-09-05T10:34:27.144Z,96359.50
2018-09-05T10:36:55.485Z,96362.14
2018-09-05T10:39:23.808Z,96365.47
2018-09-05T10:41:52.280Z,96368.55
2018-09-05T10:44:20.799Z,96368.38
2018-09-05T10:46:49.068Z,96363.59
2018-09-05T10:49:17.525Z,96359.14
2018-09-05T10:51:51.235Z,96355.79
2018-09-05T10:54:19.615Z,96360.02
2018-09-05T10:56:48.100Z,96358.88
2018-09-05T10:59:16.427Z,96356.63
2018-09-05T11:01:44.989Z,96355.38
2018-09-05T11:04:13.403Z,96355.52
2018-09-05T11:06:41.748Z,96358.32
2018-09-05T11:09:11.467Z,96350.89
2018-09-05T11:12:09.140Z,96350.80
2018-09-05T11:14:37.700Z,96347.95
2018-09-05T11:17:06.012Z,96345.94
2018-09-05T11:19:34.353Z,96342.30
2018-09-05T11:22:02.723Z,96344.31
2018-09-05T11:24:31.092Z,96346.22
2018-09-05T11:26:59.519Z,96339.81
2018-09-05T11:29:28.171Z,96338.34
2018-09-05T11:31:56.522Z,96335.74
2018-09-05T11:34:25.539Z,96332.02
2018-09-05T11:36:54.273Z,96325.89
2018-09-05T11:39:22.687Z,96326.02
2018-09-05T11:41:51.099Z,96314.75
2018-09-05T11:44:19.474Z,96322.13
2018-09-05T11:46:47.875Z,96319.23
2018-09-05T11:49:16.234Z,96320.69
2018-09-05T11:51:44.711Z,96312.37
2018-09-05T11:54:13.081Z,96316.56
2018-09-05T11:56:41.475Z,96311.52
2018-09-05T11:59:10.191Z,96311.00
2018-09-05T12:01:38.678Z,96304.27
2018-09-05T12:04:07.104Z,96304.30
2018-09-05T12:06:35.539Z,96304.32
2018-09-05T12:09:05.419Z,96287.02
2018-09-05T12:11:33.795Z,96298.42
2018-09-05T12:14:02.208Z,96295.48
2018-09-05T12:16:30.690Z,96295.25
2018-09-05T12:18:59.122Z,96290.36
2018-09-05T12:21:27.543Z,96291.98
2018-09-05T12:23:55.883Z,96289.75
2018-09-05T12:26:24.229Z,96291.65
2018-09-05T12:28:52.676Z,96286.55
2018-09-05T12:31:21.128Z,96286.83
2018-09-05T12:33:49.492Z,96288.50
2018-09-05T12:36:17.955Z,96280.09
2018-09-05T12:38:46.428Z,96283.59
2018-09-05T12:41:14.771Z,96279.25
2018-09-05T12:43:43.147Z,96282.00
2018-09-05T12:46:11.609Z,96276.55
2018-09-05T12:48:39.969Z,96284.17
2018-09-05T12:51:08.429Z,96280.34
2018-09-05T12:53:36.823Z,96278.16
2018-09-05T12:56:05.233Z,96277.61
2018-09-05T12:58:33.703Z,96276.51
2018-09-05T13:01:02.444Z,96280.56
2018-09-05T13:03:30.944Z,96272.97
2018-09-05T13:05:59.416Z,96268.41
2018-09-05T13:08:27.820Z,96273.03
2018-09-05T13:10:56.313Z,96270.34
2018-09-05T13:13:24.876Z,96274.37
2018-09-05T13:15:53.262Z,96270.31
2018-09-05T13:18:21.634Z,96270.58
2018-09-05T13:20:50.210Z,96275.47
2018-09-05T13:23:18.600Z,96265.16
2018-09-05T13:25:46.948Z,96267.04
2018-09-05T13:28:15.390Z,96262.12
2018-09-05T13:30:43.843Z,96262.65
2018-09-05T13:33:12.280Z,96262.91
2018-09-05T13:35:40.675Z,96256.70
2018-09-05T13:38:09.583Z,96264.00
2018-09-05T13:40:38.238Z,96263.45
2018-09-05T13:43:06.683Z,96265.05
2018-09-05T13:45:35.147Z,96260.44
2018-09-05T13:48:03.633Z,96260.13
2018-09-05T13:50:32.293Z,96251.78
2018-09-05T13:53:00.691Z,96252.33
2018-09-05T13:55:29.073Z,96252.85
2018-09-05T13:57:57.559Z,96255.55
2018-09-05T14:00:25.929Z,96251.45
2018-09-05T14:02:54.359Z,96253.36
2018-09-05T14:05:22.716Z,96253.61
2018-09-05T14:07:51.108Z,96244.11
2018-09-05T14:10:19.459Z,96253.58
2018-09-05T14:12:47.879Z,96252.76
2018-09-05T14:15:16.240Z,96247.61
2018-09-05T14:17:44.949Z,96243.80
2018-09-05T14:20:13.371Z,96244.34
2018-09-05T14:22:41.848Z,96244.12
2018-09-05T14:25:10.323Z,96242.50
2018-09-05T14:27:38.807Z,96243.31
2018-09-05T14:30:07.341Z,96247.39
2018-09-05T14:32:35.859Z,96245.72
2018-09-05T14:35:04.505Z,96245.73
2018-09-05T14:37:32.930Z,96243.84
2018-09-05T14:40:01.357Z,96239.02
2018-09-05T14:42:30.914Z,96240.41
2018-09-05T14:44:59.255Z,96240.74
2018-09-05T14:47:27.614Z,96235.06
2018-09-05T14:49:56.161Z,96238.02
2018-09-05T14:52:24.631Z,96239.66
2018-09-05T14:54:53.039Z,96229.35
2018-09-05T14:57:21.413Z,96236.37
2018-09-05T14:59:49.799Z,96236.07
2018-09-05T15:02:19.209Z,96231.44
2018-09-05T15:04:47.987Z,96227.66
2018-09-05T15:07:16.475Z,96233.33
2018-09-05T15:09:44.920Z,96228.95
2018-09-05T15:12:13.355Z,96227.84
2018-09-05T15:14:41.687Z,96230.83
2018-09-05T15:17:10.172Z,96228.09
2018-09-05T15:19:38.567Z,96222.95
2018-09-05T15:22:07.075Z,96228.66
2018-09-05T15:24:35.461Z,96218.41
2018-09-05T15:27:03.933Z,96221.44
2018-09-05T15:29:32.370Z,96223.12
2018-09-05T15:32:00.717Z,96225.00
2018-09-05T15:34:29.321Z,96219.58
2018-09-05T15:36:57.667Z,96228.25
2018-09-05T15:39:26.151Z,96221.22
2018-09-05T15:41:54.422Z,96220.37
2018-09-05T15:44:22.844Z,96216.31
2018-09-05T15:46:51.284Z,96214.69
2018-09-05T15:49:19.682Z,96211.70
2018-09-05T15:51:48.138Z,96213.87
2018-09-05T15:54:16.584Z,96211.16
2018-09-05T15:56:45.078Z,96211.70
2018-09-05T15:59:13.535Z,96210.88
2018-09-05T16:01:42.155Z,96213.61
2018-09-05T16:04:10.853Z,96213.61
2018-09-05T16:06:39.237Z,96213.87
2018-09-05T16:09:09.123Z,96209.28
2018-09-05T16:11:37.647Z,96205.49
2018-09-05T16:14:06.390Z,96210.91
2018-09-05T16:16:34.867Z,96215.26
2018-09-05T16:19:03.423Z,96211.72
2018-09-05T16:21:31.838Z,96214.97
2018-09-05T16:24:00.285Z,96212.82
2018-09-05T16:26:28.776Z,96220.08
2018-09-05T16:28:57.444Z,96215.47
2018-09-05T16:31:25.821Z,96213.01
2018-09-05T16:33:54.220Z,96211.09
2018-09-05T16:36:22.808Z,96208.37
2018-09-05T16:38:51.559Z,96204.53
2018-09-05T16:41:20.351Z,96211.02
2018-09-05T16:43:48.731Z,96207.22
2018-09-05T16:46:17.192Z,96212.31
2018-09-05T16:48:45.880Z,96213.39
2018-09-05T16:51:18.035Z,96212.29
2018-09-05T16:53:48.206Z,96206.84
2018-09-05T16:56:17.615Z,96209.80
2018-09-05T16:58:47.070Z,96212.77
2018-09-05T17:01:16.192Z,96213.83
2018-09-05T17:03:46.815Z,96213.25
2018-09-05T17:06:18.097Z,96213.20
2018-09-05T17:08:47.113Z,96206.91
2018-09-05T17:11:15.777Z,96210.12
2018-09-05T17:13:44.545Z,96216.32
2018-09-05T17:16:12.938Z,96219.50
2018-09-05T17:18:41.271Z,96216.48
2018-09-05T17:21:10.890Z,96222.08
2018-09-05T17:23:40.875Z,96218.48
2018-09-05T17:26:10.407Z,96215.71
2018-09-05T17:28:40.119Z,96216.92
2018-09-05T17:31:10.499Z,96215.25
2018-09-05T17:33:39.763Z,96214.69
2018-09-05T17:36:08.182Z,96214.88
2018-09-05T17:38:36.827Z,96216.12
2018-09-05T17:41:05.555Z,96212.78
2018-09-05T17:43:33.961Z,96212.15
2018-09-05T17:46:02.444Z,96205.87
2018-09-05T17:48:30.830Z,96207.98
2018-09-05T17:50:59.250Z,96209.02
2018-09-05T17:53:27.774Z,96204.90
2018-09-05T17:55:56.195Z,96206.62
2018-09-05T17:58:24.612Z,96212.70
2018-09-05T18:00:53.034Z,96215.77
2018-09-05T18:03:21.788Z,96219.67
2018-09-05T18:05:50.274Z,96215.35
2018-09-05T18:08:18.717Z,96217.32
2018-09-05T18:10:47.092Z,96213.86
2018-09-05T18:13:15.579Z,96215.53
2018-09-05T18:15:44.019Z,96220.80
2018-09-05T18:18:13.837Z,96217.47
2018-09-05T18:20:45.973Z,96219.63
2018-09-05T18:23:14.650Z,96225.26
2018-09-05T18:25:46.701Z,96236.14
2018-09-05T18:28:18.681Z,96228.67
2018-09-05T18:30:51.101Z,96230.33
2018-09-05T18:33:28.045Z,96233.72
2018-09-05T18:35:58.163Z,96235.19
2018-09-05T18:38:26.776Z,96238.31
2018-09-05T18:40:55.155Z,96240.39
2018-09-05T18:43:30.565Z,96236.63
2018-09-05T18:45:59.087Z,96240.48
2018-09-05T18:48:27.469Z,96235.61
2018-09-05T18:50:55.952Z,96233.19
2018-09-05T18:53:24.303Z,96238.53
2018-09-05T18:55:53.447Z,96233.61
2018-09-05T18:58:21.935Z,96237.72
2018-09-05T19:00:50.387Z,96240.02
2018-09-05T19:03:18.785Z,96238.98
2018-09-05T19:05:47.163Z,96231.80
2018-09-05T19:08:15.651Z,96235.27
2018-09-05T19:10:44.087Z,96232.03
2018-09-05T19:13:12.471Z,96228.19
2018-09-05T19:15:40.860Z,96223.62
2018-09-05T19:18:10.025Z,96221.93
2018-09-05T19:20:38.521Z,96221.05
2018-09-05T19:23:07.013Z,96219.81
2018-09-05T19:25:35.403Z,96226.39
2018-09-05T19:28:04.563Z,96222.20
2018-09-05T19:30:32.962Z,96221.50
2018-09-05T19:33:01.328Z,96216.12
2018-09-05T19:35:29.947Z,96221.97
2018-09-05T19:37:58.294Z,96225.00
2018-09-05T19:40:26.736Z,96218.28
2018-09-05T19:42:55.098Z,96223.66
2018-09-05T19:45:23.490Z,96221.77
2018-09-05T19:47:51.877Z,96226.00
2018-09-05T19:50:20.380Z,96222.38
2018-09-05T19:52:48.671Z,96223.45
2018-09-05T19:55:17.142Z,96219.53
2018-09-05T19:57:45.560Z,96217.68
2018-09-05T20:00:15.483Z,96220.55
2018-09-05T20:02:44.171Z,96224.12
2018-09-05T20:05:13.383Z,96225.52
2018-09-05T20:07:41.801Z,96224.40
2018-09-05T20:10:10.357Z,96223.36
2018-09-05T20:12:38.776Z,96221.85
2018-09-05T20:15:07.308Z,96226.14
2018-09-05T20:17:35.681Z,96222.84
2018-09-05T20:20:04.422Z,96226.78
2018-09-05T20:22:33.008Z,96222.94
2018-09-05T20:25:01.435Z,96226.10
2018-09-05T20:27:30.064Z,96229.06
2018-09-05T20:29:58.530Z,96228.08
2018-09-05T20:32:27.055Z,96232.06
2018-09-05T20:34:55.547Z,96227.90
2018-09-05T20:37:23.891Z,96230.55
2018-09-05T20:39:52.243Z,96231.66
2018-09-05T20:42:20.676Z,96230.14
2018-09-05T20:44:49.009Z,96229.19
2018-09-05T20:47:17.404Z,96225.02
2018-09-05T20:49:45.784Z,96231.06
2018-09-05T20:52:14.246Z,96233.86
2018-09-05T20:54:42.654Z,96226.73
2018-09-05T20:57:11.108Z,96229.80
2018-09-05T20:59:39.543Z,96228.07
2018-09-05T21:02:08.005Z,96229.69
2018-09-05T21:04:36.395Z,96233.23
2018-09-05T21:07:04.856Z,96232.20
2018-09-05T21:09:33.192Z,96226.03
2018-09-05T21:12:01.728Z,96227.65
2018-09-05T21:14:30.182Z,96231.67
2018-09-05T21:16:58.566Z,96235.52
2018-09-05T21:19:27.311Z,96229.95
2018-09-05T21:21:55.972Z,96230.33
2018-09-05T21:24:24.478Z,96231.02
2018-09-05T21:26:53.556Z,96225.27
2018-09-05T21:29:21.996Z,96228.22
2018-09-05T21:31:50.534Z,96223.59
2018-09-05T21:34:19.318Z,96226.11
2018-09-05T21:36:48.212Z,96230.19
2018-09-05T21:39:16.793Z,96231.25
2018-09-05T21:41:46.241Z,96229.77
2018-09-05T21:44:15.462Z,96229.81
2018-09-05T21:46:43.896Z,96226.88
2018-09-05T21:49:12.420Z,96228.53
2018-09-05T21:51:40.835Z,96223.55
2018-09-05T21:54:15.672Z,96218.73
2018-09-05T21:56:44.072Z,96224.80
2018-09-05T21:59:12.520Z,96223.02
2018-09-05T22:01:41.135Z,96215.30
2018-09-05T22:04:09.539Z,96216.76
2018-09-05T22:06:38.000Z,96219.22
2018-09-05T22:09:09.204Z,96212.45
2018-09-05T22:11:37.586Z,96212.89
2018-09-05T22:14:06.109Z,96213.64
2018-09-05T22:16:34.688Z,96206.19
2018-09-05T22:19:03.050Z,96207.69
2018-09-05T22:21:31.452Z,96205.44
2018-09-05T22:23:59.866Z,96203.78
2018-09-05T22:26:28.360Z,96204.00
2018-09-05T22:28:56.792Z,96199.02
2018-09-05T22:31:25.362Z,96206.61
2018-09-05T22:33:53.758Z,96207.14
2018-09-05T22:36:22.103Z,96205.51
2018-09-05T22:38:50.733Z,96201.16
2018-09-05T22:41:19.116Z,96205.34
2018-09-05T22:43:58.716Z,96209.41
2018-09-05T22:46:38.312Z,96204.41
2018-09-05T22:53:35.092Z,96201.27
2018-09-05T22:56:41.520Z,96197.26
2018-09-05T22:59:19.819Z,96193.17
2018-09-05T23:01:57.072Z,96196.73
2018-09-05T23:08:47.736Z,96199.23
2018-09-05T23:11:27.438Z,96193.92
2018-09-05T23:15:06.516Z,96192.51
2018-09-05T23:17:46.312Z,96196.03
2018-09-05T23:20:32.881Z,96190.75
2018-09-05T23:23:12.652Z,96186.66
2018-09-05T23:25:41.189Z,96187.33
2018-09-05T23:28:09.580Z,96184.05
2018-09-05T23:30:37.949Z,96177.96
2018-09-05T23:33:06.422Z,96181.09
2018-09-05T23:35:34.843Z,96172.32
2018-09-05T23:38:03.292Z,96177.08
2018-09-05T23:40:31.725Z,96176.02
2018-09-05T23:43:00.052Z,96178.92
2018-09-05T23:45:28.424Z,96178.77
2018-09-05T23:47:56.819Z,96171.77
2018-09-05T23:50:25.207Z,96169.62
2018-09-05T23:52:53.602Z,96173.56
2018-09-05T23:55:21.964Z,96170.05
2018-09-05T23:57:50.286Z,96173.32
